sensor_id;sensor_type;location;lat;lon;timestamp;P1;durP1;ratioP1;P2;durP2;ratioP2
26269;SDS011;15937;50.612;6.656;2023-12-20T00:03:55;1.00;;;0.90;;
26269;SDS011;15937;50.612;6.656;2023-12-20T00:07:57;0.80;;;0.80;;
26269;SDS011;15937;50.612;6.656;2023-12-20T00:12:00;0.90;;;0.90;;
26269;SDS011;15937;50.612;6.656;2023-12-20T00:16:01;0.80;;;0.80;;
26269;SDS011;15937;50.612;6.656;2023-12-20T00:20:04;2.37;;;0.80;;
26269;SDS011;15937;50.612;6.656;2023-12-20T00:24:07;0.80;;;0.80;;
26269;SDS011;15937;50.612;6.656;2023-12-20T00:28:09;0.80;;;0.80;;
26269;SDS011;15937;50.612;6.656;2023-12-20T00:32:11;1.45;;;0.95;;
26269;SDS011;15937;50.612;6.656;2023-12-20T00:36:13;2.88;;;0.90;;
26269;SDS011;15937;50.612;6.656;2023-12-20T00:40:15;0.77;;;0.77;;
26269;SDS011;15937;50.612;6.656;2023-12-20T00:44:17;1.00;;;1.00;;
26269;SDS011;15937;50.612;6.656;2023-12-20T00:48:19;1.70;;;1.30;;
26269;SDS011;15937;50.612;6.656;2023-12-20T00:52:21;2.45;;;1.58;;
26269;SDS011;15937;50.612;6.656;2023-12-20T00:56:24;2.50;;;1.77;;
26269;SDS011;15937;50.612;6.656;2023-12-20T01:00:25;3.00;;;2.15;;
26269;SDS011;15937;50.612;6.656;2023-12-20T01:04:28;2.95;;;2.33;;
26269;SDS011;15937;50.612;6.656;2023-12-20T01:08:30;2.80;;;2.33;;
26269;SDS011;15937;50.612;6.656;2023-12-20T01:12:32;5.07;;;3.40;;
26269;SDS011;15937;50.612;6.656;2023-12-20T01:16:34;3.63;;;2.33;;
26269;SDS011;15937;50.612;6.656;2023-12-20T01:20:39;2.92;;;2.22;;
26269;SDS011;15937;50.612;6.656;2023-12-20T01:24:41;5.47;;;2.83;;
26269;SDS011;15937;50.612;6.656;2023-12-20T01:28:44;5.97;;;3.83;;
26269;SDS011;15937;50.612;6.656;2023-12-20T01:32:45;8.85;;;3.65;;
26269;SDS011;15937;50.612;6.656;2023-12-20T01:36:48;8.50;;;5.40;;
26269;SDS011;15937;50.612;6.656;2023-12-20T01:40:49;6.60;;;4.78;;
26269;SDS011;15937;50.612;6.656;2023-12-20T01:44:52;6.75;;;4.63;;
26269;SDS011;15937;50.612;6.656;2023-12-20T01:48:54;8.18;;;4.38;;
26269;SDS011;15937;50.612;6.656;2023-12-20T01:52:56;10.15;;;4.78;;
26269;SDS011;15937;50.612;6.656;2023-12-20T01:57:01;11.98;;;4.13;;
26269;SDS011;15937;50.612;6.656;2023-12-20T02:01:04;5.90;;;3.58;;
26269;SDS011;15937;50.612;6.656;2023-12-20T02:05:07;11.88;;;3.42;;
26269;SDS011;15937;50.612;6.656;2023-12-20T02:09:10;9.77;;;2.20;;
26269;SDS011;15937;50.612;6.656;2023-12-20T02:13:12;9.07;;;2.33;;
26269;SDS011;15937;50.612;6.656;2023-12-20T02:17:15;11.32;;;3.28;;
26269;SDS011;15937;50.612;6.656;2023-12-20T02:21:17;7.60;;;2.13;;
26269;SDS011;15937;50.612;6.656;2023-12-20T02:25:19;4.00;;;1.90;;
26269;SDS011;15937;50.612;6.656;2023-12-20T02:29:21;11.33;;;2.07;;
26269;SDS011;15937;50.612;6.656;2023-12-20T02:33:23;10.63;;;2.60;;
26269;SDS011;15937;50.612;6.656;2023-12-20T02:37:25;5.68;;;1.98;;
26269;SDS011;15937;50.612;6.656;2023-12-20T02:41:27;15.20;;;2.00;;
26269;SDS011;15937;50.612;6.656;2023-12-20T02:45:28;16.00;;;2.47;;
26269;SDS011;15937;50.612;6.656;2023-12-20T02:49:30;4.05;;;2.03;;
26269;SDS011;15937;50.612;6.656;2023-12-20T02:53:32;9.70;;;1.90;;
26269;SDS011;15937;50.612;6.656;2023-12-20T02:57:34;14.60;;;2.50;;
26269;SDS011;15937;50.612;6.656;2023-12-20T03:01:44;8.88;;;1.80;;
26269;SDS011;15937;50.612;6.656;2023-12-20T03:05:47;9.60;;;4.07;;
26269;SDS011;15937;50.612;6.656;2023-12-20T03:09:49;16.92;;;2.80;;
26269;SDS011;15937;50.612;6.656;2023-12-20T03:14:11;7.00;;;2.45;;
26269;SDS011;15937;50.612;6.656;2023-12-20T03:18:12;11.65;;;2.38;;
26269;SDS011;15937;50.612;6.656;2023-12-20T03:22:14;29.98;;;3.65;;
26269;SDS011;15937;50.612;6.656;2023-12-20T03:26:16;17.13;;;2.00;;
26269;SDS011;15937;50.612;6.656;2023-12-20T03:30:18;6.68;;;1.83;;
26269;SDS011;15937;50.612;6.656;2023-12-20T03:34:21;12.00;;;2.90;;
26269;SDS011;15937;50.612;6.656;2023-12-20T03:38:23;7.35;;;2.22;;
26269;SDS011;15937;50.612;6.656;2023-12-20T03:42:25;11.15;;;2.42;;
26269;SDS011;15937;50.612;6.656;2023-12-20T03:46:27;10.75;;;1.95;;
26269;SDS011;15937;50.612;6.656;2023-12-20T03:50:29;10.43;;;2.20;;
26269;SDS011;15937;50.612;6.656;2023-12-20T03:54:31;12.40;;;2.70;;
26269;SDS011;15937;50.612;6.656;2023-12-20T03:58:33;13.57;;;2.83;;
26269;SDS011;15937;50.612;6.656;2023-12-20T04:02:34;9.55;;;2.63;;
26269;SDS011;15937;50.612;6.656;2023-12-20T04:06:37;12.93;;;2.28;;
26269;SDS011;15937;50.612;6.656;2023-12-20T04:10:39;18.10;;;2.80;;
26269;SDS011;15937;50.612;6.656;2023-12-20T04:14:41;9.48;;;2.55;;
26269;SDS011;15937;50.612;6.656;2023-12-20T04:18:43;18.48;;;2.90;;
26269;SDS011;15937;50.612;6.656;2023-12-20T04:22:45;7.20;;;2.20;;
26269;SDS011;15937;50.612;6.656;2023-12-20T04:26:47;17.38;;;2.92;;
26269;SDS011;15937;50.612;6.656;2023-12-20T04:30:49;10.27;;;2.47;;
26269;SDS011;15937;50.612;6.656;2023-12-20T04:34:51;12.70;;;2.75;;
26269;SDS011;15937;50.612;6.656;2023-12-20T04:38:53;12.95;;;2.80;;
26269;SDS011;15937;50.612;6.656;2023-12-20T04:42:55;26.70;;;3.50;;
26269;SDS011;15937;50.612;6.656;2023-12-20T04:46:57;18.50;;;2.78;;
26269;SDS011;15937;50.612;6.656;2023-12-20T04:50:58;25.95;;;2.72;;
26269;SDS011;15937;50.612;6.656;2023-12-20T04:55:01;18.45;;;2.65;;
26269;SDS011;15937;50.612;6.656;2023-12-20T04:59:02;10.23;;;2.58;;
26269;SDS011;15937;50.612;6.656;2023-12-20T05:03:04;16.60;;;2.50;;
26269;SDS011;15937;50.612;6.656;2023-12-20T05:07:06;12.32;;;2.90;;
26269;SDS011;15937;50.612;6.656;2023-12-20T05:11:08;17.17;;;2.90;;
26269;SDS011;15937;50.612;6.656;2023-12-20T05:15:10;16.13;;;2.73;;
26269;SDS011;15937;50.612;6.656;2023-12-20T05:19:12;24.20;;;4.05;;
26269;SDS011;15937;50.612;6.656;2023-12-20T05:23:15;16.10;;;2.90;;
26269;SDS011;15937;50.612;6.656;2023-12-20T05:27:18;13.18;;;2.75;;
26269;SDS011;15937;50.612;6.656;2023-12-20T05:31:20;17.65;;;2.88;;
26269;SDS011;15937;50.612;6.656;2023-12-20T05:35:22;18.63;;;2.80;;
26269;SDS011;15937;50.612;6.656;2023-12-20T05:39:25;30.10;;;4.45;;
26269;SDS011;15937;50.612;6.656;2023-12-20T05:43:27;9.40;;;2.57;;
26269;SDS011;15937;50.612;6.656;2023-12-20T05:47:28;10.82;;;3.88;;
26269;SDS011;15937;50.612;6.656;2023-12-20T05:51:30;12.13;;;2.85;;
26269;SDS011;15937;50.612;6.656;2023-12-20T05:55:32;18.58;;;2.75;;
26269;SDS011;15937;50.612;6.656;2023-12-20T05:59:34;15.00;;;3.10;;
26269;SDS011;15937;50.612;6.656;2023-12-20T06:03:36;14.57;;;3.92;;
26269;SDS011;15937;50.612;6.656;2023-12-20T06:07:38;23.98;;;2.97;;
26269;SDS011;15937;50.612;6.656;2023-12-20T06:11:40;12.45;;;3.10;;
26269;SDS011;15937;50.612;6.656;2023-12-20T06:15:42;17.02;;;3.13;;
26269;SDS011;15937;50.612;6.656;2023-12-20T06:19:44;7.63;;;2.97;;
26269;SDS011;15937;50.612;6.656;2023-12-20T06:23:49;16.08;;;4.40;;
26269;SDS011;15937;50.612;6.656;2023-12-20T06:27:51;16.92;;;3.60;;
26269;SDS011;15937;50.612;6.656;2023-12-20T06:31:53;23.48;;;3.58;;
26269;SDS011;15937;50.612;6.656;2023-12-20T06:35:55;11.85;;;3.35;;
26269;SDS011;15937;50.612;6.656;2023-12-20T06:39:57;22.85;;;4.07;;
26269;SDS011;15937;50.612;6.656;2023-12-20T06:43:59;16.73;;;2.63;;
26269;SDS011;15937;50.612;6.656;2023-12-20T06:48:01;15.10;;;3.42;;
26269;SDS011;15937;50.612;6.656;2023-12-20T06:52:03;13.37;;;3.47;;
26269;SDS011;15937;50.612;6.656;2023-12-20T06:56:05;27.98;;;4.40;;
26269;SDS011;15937;50.612;6.656;2023-12-20T07:04:12;17.08;;;3.67;;
26269;SDS011;15937;50.612;6.656;2023-12-20T07:08:14;15.95;;;3.05;;
26269;SDS011;15937;50.612;6.656;2023-12-20T07:12:16;11.85;;;3.03;;
26269;SDS011;15937;50.612;6.656;2023-12-20T07:16:20;12.10;;;3.13;;
26269;SDS011;15937;50.612;6.656;2023-12-20T07:20:24;16.02;;;3.67;;
26269;SDS011;15937;50.612;6.656;2023-12-20T07:24:26;18.65;;;3.58;;
26269;SDS011;15937;50.612;6.656;2023-12-20T07:28:27;10.95;;;2.50;;
26269;SDS011;15937;50.612;6.656;2023-12-20T07:32:29;15.50;;;2.78;;
26269;SDS011;15937;50.612;6.656;2023-12-20T07:36:31;23.60;;;4.78;;
26269;SDS011;15937;50.612;6.656;2023-12-20T07:40:33;17.10;;;3.10;;
26269;SDS011;15937;50.612;6.656;2023-12-20T07:44:35;17.15;;;3.67;;
26269;SDS011;15937;50.612;6.656;2023-12-20T07:48:37;24.23;;;3.72;;
26269;SDS011;15937;50.612;6.656;2023-12-20T07:52:43;14.75;;;2.88;;
26269;SDS011;15937;50.612;6.656;2023-12-20T07:56:46;17.98;;;3.33;;
26269;SDS011;15937;50.612;6.656;2023-12-20T08:00:48;13.45;;;3.03;;
26269;SDS011;15937;50.612;6.656;2023-12-20T08:04:50;14.80;;;2.88;;
26269;SDS011;15937;50.612;6.656;2023-12-20T08:08:52;19.20;;;2.67;;
26269;SDS011;15937;50.612;6.656;2023-12-20T08:13:02;12.32;;;3.38;;
26269;SDS011;15937;50.612;6.656;2023-12-20T08:17:04;23.80;;;3.70;;
26269;SDS011;15937;50.612;6.656;2023-12-20T08:21:06;13.57;;;3.20;;
26269;SDS011;15937;50.612;6.656;2023-12-20T08:25:11;16.33;;;3.08;;
26269;SDS011;15937;50.612;6.656;2023-12-20T08:29:13;14.25;;;2.75;;
26269;SDS011;15937;50.612;6.656;2023-12-20T08:33:15;17.77;;;3.25;;
26269;SDS011;15937;50.612;6.656;2023-12-20T08:37:17;24.73;;;3.15;;
26269;SDS011;15937;50.612;6.656;2023-12-20T08:41:19;17.55;;;2.97;;
26269;SDS011;15937;50.612;6.656;2023-12-20T08:45:21;15.47;;;3.23;;
26269;SDS011;15937;50.612;6.656;2023-12-20T08:49:23;20.80;;;3.20;;
26269;SDS011;15937;50.612;6.656;2023-12-20T08:53:27;17.70;;;3.65;;
26269;SDS011;15937;50.612;6.656;2023-12-20T08:57:28;14.73;;;2.63;;
26269;SDS011;15937;50.612;6.656;2023-12-20T09:01:33;20.83;;;3.13;;
26269;SDS011;15937;50.612;6.656;2023-12-20T09:05:35;17.45;;;3.72;;
26269;SDS011;15937;50.612;6.656;2023-12-20T09:09:37;18.15;;;2.90;;
26269;SDS011;15937;50.612;6.656;2023-12-20T09:13:38;21.58;;;3.40;;
26269;SDS011;15937;50.612;6.656;2023-12-20T09:17:40;8.75;;;2.47;;
26269;SDS011;15937;50.612;6.656;2023-12-20T09:21:43;13.50;;;2.47;;
26269;SDS011;15937;50.612;6.656;2023-12-20T09:25:45;13.75;;;2.65;;
26269;SDS011;15937;50.612;6.656;2023-12-20T09:29:47;15.98;;;2.63;;
26269;SDS011;15937;50.612;6.656;2023-12-20T09:33:49;13.27;;;2.20;;
26269;SDS011;15937;50.612;6.656;2023-12-20T09:37:51;13.82;;;2.50;;
26269;SDS011;15937;50.612;6.656;2023-12-20T09:42:00;17.00;;;2.60;;
26269;SDS011;15937;50.612;6.656;2023-12-20T09:46:06;13.90;;;2.85;;
26269;SDS011;15937;50.612;6.656;2023-12-20T09:50:11;11.48;;;2.60;;
26269;SDS011;15937;50.612;6.656;2023-12-20T09:54:14;17.17;;;2.92;;
26269;SDS011;15937;50.612;6.656;2023-12-20T09:58:18;15.70;;;3.00;;
26269;SDS011;15937;50.612;6.656;2023-12-20T10:02:21;17.17;;;2.97;;
26269;SDS011;15937;50.612;6.656;2023-12-20T10:06:28;18.48;;;3.38;;
26269;SDS011;15937;50.612;6.656;2023-12-20T10:10:30;17.77;;;3.53;;
26269;SDS011;15937;50.612;6.656;2023-12-20T10:14:45;15.30;;;2.92;;
26269;SDS011;15937;50.612;6.656;2023-12-20T10:18:47;16.58;;;3.13;;
26269;SDS011;15937;50.612;6.656;2023-12-20T10:22:49;25.15;;;4.25;;
26269;SDS011;15937;50.612;6.656;2023-12-20T10:27:00;22.73;;;3.70;;
26269;SDS011;15937;50.612;6.656;2023-12-20T10:31:05;20.33;;;3.20;;
26269;SDS011;15937;50.612;6.656;2023-12-20T10:35:08;14.73;;;3.08;;
26269;SDS011;15937;50.612;6.656;2023-12-20T10:39:10;14.93;;;4.25;;
26269;SDS011;15937;50.612;6.656;2023-12-20T10:43:14;16.00;;;3.95;;
26269;SDS011;15937;50.612;6.656;2023-12-20T10:47:17;11.73;;;3.83;;
26269;SDS011;15937;50.612;6.656;2023-12-20T10:51:19;18.37;;;4.57;;
26269;SDS011;15937;50.612;6.656;2023-12-20T10:55:25;24.20;;;5.88;;
26269;SDS011;15937;50.612;6.656;2023-12-20T10:59:28;22.23;;;4.40;;
26269;SDS011;15937;50.612;6.656;2023-12-20T11:03:34;14.25;;;5.50;;
26269;SDS011;15937;50.612;6.656;2023-12-20T11:07:43;17.23;;;3.67;;
26269;SDS011;15937;50.612;6.656;2023-12-20T11:12:10;14.77;;;4.18;;
26269;SDS011;15937;50.612;6.656;2023-12-20T11:16:16;26.15;;;4.82;;
26269;SDS011;15937;50.612;6.656;2023-12-20T11:20:21;21.77;;;4.88;;
26269;SDS011;15937;50.612;6.656;2023-12-20T11:24:44;14.18;;;3.35;;
26269;SDS011;15937;50.612;6.656;2023-12-20T11:28:47;8.75;;;3.63;;
26269;SDS011;15937;50.612;6.656;2023-12-20T11:32:48;17.92;;;2.97;;
26269;SDS011;15937;50.612;6.656;2023-12-20T11:36:56;15.10;;;3.40;;
26269;SDS011;15937;50.612;6.656;2023-12-20T11:40:59;10.48;;;2.85;;
26269;SDS011;15937;50.612;6.656;2023-12-20T11:45:05;13.55;;;3.22;;
26269;SDS011;15937;50.612;6.656;2023-12-20T11:49:09;16.58;;;4.00;;
26269;SDS011;15937;50.612;6.656;2023-12-20T11:53:11;14.35;;;3.33;;
26269;SDS011;15937;50.612;6.656;2023-12-20T11:57:13;17.15;;;4.47;;
26269;SDS011;15937;50.612;6.656;2023-12-20T12:01:15;15.75;;;2.97;;
26269;SDS011;15937;50.612;6.656;2023-12-20T12:05:17;14.93;;;4.07;;
26269;SDS011;15937;50.612;6.656;2023-12-20T12:09:21;20.77;;;4.13;;
26269;SDS011;15937;50.612;6.656;2023-12-20T12:13:23;21.05;;;3.78;;
26269;SDS011;15937;50.612;6.656;2023-12-20T12:17:28;19.83;;;3.35;;
26269;SDS011;15937;50.612;6.656;2023-12-20T12:21:30;10.00;;;2.58;;
26269;SDS011;15937;50.612;6.656;2023-12-20T12:25:35;17.00;;;3.58;;
26269;SDS011;15937;50.612;6.656;2023-12-20T12:30:02;12.70;;;3.03;;
26269;SDS011;15937;50.612;6.656;2023-12-20T12:34:06;19.17;;;3.13;;
26269;SDS011;15937;50.612;6.656;2023-12-20T12:38:10;18.73;;;4.05;;
26269;SDS011;15937;50.612;6.656;2023-12-20T12:42:12;13.97;;;2.93;;
26269;SDS011;15937;50.612;6.656;2023-12-20T12:46:14;19.98;;;5.57;;
26269;SDS011;15937;50.612;6.656;2023-12-20T12:50:16;10.98;;;2.95;;
26269;SDS011;15937;50.612;6.656;2023-12-20T12:54:19;19.25;;;2.88;;
26269;SDS011;15937;50.612;6.656;2023-12-20T12:58:23;10.25;;;3.15;;
26269;SDS011;15937;50.612;6.656;2023-12-20T13:02:26;11.05;;;2.58;;
26269;SDS011;15937;50.612;6.656;2023-12-20T13:06:28;21.08;;;3.42;;
26269;SDS011;15937;50.612;6.656;2023-12-20T13:10:31;11.37;;;3.03;;
26269;SDS011;15937;50.612;6.656;2023-12-20T13:14:33;22.95;;;3.25;;
26269;SDS011;15937;50.612;6.656;2023-12-20T13:18:39;21.42;;;3.28;;
26269;SDS011;15937;50.612;6.656;2023-12-20T13:22:44;12.25;;;3.05;;
26269;SDS011;15937;50.612;6.656;2023-12-20T13:26:46;11.63;;;2.25;;
26269;SDS011;15937;50.612;6.656;2023-12-20T13:30:48;10.00;;;2.73;;
26269;SDS011;15937;50.612;6.656;2023-12-20T13:34:50;18.23;;;3.25;;
26269;SDS011;15937;50.612;6.656;2023-12-20T13:38:52;11.00;;;1.85;;
26269;SDS011;15937;50.612;6.656;2023-12-20T13:42:54;6.13;;;1.57;;
26269;SDS011;15937;50.612;6.656;2023-12-20T13:46:56;3.78;;;1.60;;
26269;SDS011;15937;50.612;6.656;2023-12-20T13:50:58;8.23;;;2.53;;
26269;SDS011;15937;50.612;6.656;2023-12-20T13:55:00;4.50;;;1.80;;
26269;SDS011;15937;50.612;6.656;2023-12-20T13:59:02;4.20;;;1.80;;
26269;SDS011;15937;50.612;6.656;2023-12-20T14:03:06;2.95;;;1.40;;
26269;SDS011;15937;50.612;6.656;2023-12-20T14:07:08;16.80;;;6.97;;
26269;SDS011;15937;50.612;6.656;2023-12-20T14:11:13;33.38;;;12.95;;
26269;SDS011;15937;50.612;6.656;2023-12-20T14:15:17;26.90;;;11.82;;
26269;SDS011;15937;50.612;6.656;2023-12-20T14:19:19;5.72;;;3.00;;
26269;SDS011;15937;50.612;6.656;2023-12-20T14:23:20;7.18;;;3.45;;
26269;SDS011;15937;50.612;6.656;2023-12-20T14:27:23;10.70;;;3.17;;
26269;SDS011;15937;50.612;6.656;2023-12-20T14:31:28;13.45;;;2.97;;
26269;SDS011;15937;50.612;6.656;2023-12-20T14:35:30;14.35;;;3.38;;
26269;SDS011;15937;50.612;6.656;2023-12-20T14:39:32;8.57;;;3.15;;
26269;SDS011;15937;50.612;6.656;2023-12-20T14:43:34;12.77;;;2.50;;
26269;SDS011;15937;50.612;6.656;2023-12-20T14:47:36;9.45;;;2.60;;
26269;SDS011;15937;50.612;6.656;2023-12-20T14:51:39;11.20;;;3.00;;
26269;SDS011;15937;50.612;6.656;2023-12-20T14:55:41;10.38;;;2.90;;
26269;SDS011;15937;50.612;6.656;2023-12-20T14:59:43;16.05;;;4.28;;
26269;SDS011;15937;50.612;6.656;2023-12-20T15:03:49;11.77;;;3.70;;
26269;SDS011;15937;50.612;6.656;2023-12-20T15:07:51;9.82;;;2.70;;
26269;SDS011;15937;50.612;6.656;2023-12-20T15:11:54;14.50;;;3.90;;
26269;SDS011;15937;50.612;6.656;2023-12-20T15:15:56;18.70;;;2.95;;
26269;SDS011;15937;50.612;6.656;2023-12-20T15:19:58;9.05;;;2.92;;
26269;SDS011;15937;50.612;6.656;2023-12-20T15:24:00;15.27;;;4.80;;
26269;SDS011;15937;50.612;6.656;2023-12-20T15:28:17;13.65;;;3.63;;
26269;SDS011;15937;50.612;6.656;2023-12-20T15:32:19;10.00;;;3.20;;
26269;SDS011;15937;50.612;6.656;2023-12-20T15:36:21;5.93;;;2.43;;
26269;SDS011;15937;50.612;6.656;2023-12-20T15:40:23;10.27;;;3.00;;
26269;SDS011;15937;50.612;6.656;2023-12-20T15:44:25;9.90;;;2.92;;
26269;SDS011;15937;50.612;6.656;2023-12-20T15:48:27;9.93;;;2.60;;
26269;SDS011;15937;50.612;6.656;2023-12-20T15:52:30;11.77;;;3.15;;
26269;SDS011;15937;50.612;6.656;2023-12-20T15:56:33;6.38;;;1.83;;
26269;SDS011;15937;50.612;6.656;2023-12-20T16:00:35;35.93;;;12.50;;
26269;SDS011;15937;50.612;6.656;2023-12-20T16:04:37;67.05;;;19.80;;
26269;SDS011;15937;50.612;6.656;2023-12-20T16:08:40;78.07;;;20.50;;
26269;SDS011;15937;50.612;6.656;2023-12-20T16:12:42;57.00;;;19.58;;
26269;SDS011;15937;50.612;6.656;2023-12-20T16:16:44;27.73;;;10.23;;
26269;SDS011;15937;50.612;6.656;2023-12-20T16:20:46;11.80;;;4.60;;
26269;SDS011;15937;50.612;6.656;2023-12-20T16:24:48;16.35;;;4.40;;
26269;SDS011;15937;50.612;6.656;2023-12-20T16:28:50;13.90;;;3.88;;
26269;SDS011;15937;50.612;6.656;2023-12-20T16:32:52;14.13;;;3.03;;
26269;SDS011;15937;50.612;6.656;2023-12-20T16:36:54;6.97;;;3.13;;
26269;SDS011;15937;50.612;6.656;2023-12-20T16:40:56;13.77;;;3.38;;
26269;SDS011;15937;50.612;6.656;2023-12-20T16:44:59;11.88;;;2.97;;
26269;SDS011;15937;50.612;6.656;2023-12-20T16:49:01;10.95;;;2.65;;
26269;SDS011;15937;50.612;6.656;2023-12-20T16:53:04;11.00;;;3.07;;
26269;SDS011;15937;50.612;6.656;2023-12-20T16:57:06;5.25;;;2.42;;
26269;SDS011;15937;50.612;6.656;2023-12-20T17:01:08;21.52;;;3.38;;
26269;SDS011;15937;50.612;6.656;2023-12-20T17:05:12;15.68;;;3.00;;
26269;SDS011;15937;50.612;6.656;2023-12-20T17:09:13;14.98;;;3.33;;
26269;SDS011;15937;50.612;6.656;2023-12-20T17:13:17;11.20;;;2.78;;
26269;SDS011;15937;50.612;6.656;2023-12-20T17:17:19;10.30;;;2.97;;
26269;SDS011;15937;50.612;6.656;2023-12-20T17:21:21;19.55;;;4.38;;
26269;SDS011;15937;50.612;6.656;2023-12-20T17:25:23;13.75;;;3.80;;
26269;SDS011;15937;50.612;6.656;2023-12-20T17:29:25;24.65;;;5.65;;
26269;SDS011;15937;50.612;6.656;2023-12-20T17:33:27;21.23;;;4.15;;
26269;SDS011;15937;50.612;6.656;2023-12-20T17:37:29;12.23;;;3.25;;
26269;SDS011;15937;50.612;6.656;2023-12-20T17:41:31;12.40;;;3.30;;
26269;SDS011;15937;50.612;6.656;2023-12-20T17:45:35;15.90;;;3.58;;
26269;SDS011;15937;50.612;6.656;2023-12-20T17:49:38;14.40;;;2.72;;
26269;SDS011;15937;50.612;6.656;2023-12-20T17:53:40;16.73;;;3.55;;
26269;SDS011;15937;50.612;6.656;2023-12-20T17:57:41;14.63;;;4.40;;
26269;SDS011;15937;50.612;6.656;2023-12-20T18:01:43;12.82;;;3.00;;
26269;SDS011;15937;50.612;6.656;2023-12-20T18:05:46;9.90;;;2.90;;
26269;SDS011;15937;50.612;6.656;2023-12-20T18:09:48;9.43;;;2.40;;
26269;SDS011;15937;50.612;6.656;2023-12-20T18:13:49;10.23;;;2.10;;
26269;SDS011;15937;50.612;6.656;2023-12-20T18:17:52;10.57;;;2.50;;
26269;SDS011;15937;50.612;6.656;2023-12-20T18:21:54;4.95;;;1.85;;
26269;SDS011;15937;50.612;6.656;2023-12-20T18:25:56;9.00;;;1.88;;
26269;SDS011;15937;50.612;6.656;2023-12-20T18:29:58;12.90;;;2.00;;
26269;SDS011;15937;50.612;6.656;2023-12-20T18:34:17;7.95;;;1.75;;
26269;SDS011;15937;50.612;6.656;2023-12-20T18:38:19;17.73;;;2.73;;
26269;SDS011;15937;50.612;6.656;2023-12-20T18:42:22;10.88;;;2.20;;
26269;SDS011;15937;50.612;6.656;2023-12-20T18:46:24;17.80;;;2.78;;
26269;SDS011;15937;50.612;6.656;2023-12-20T18:50:26;8.88;;;2.92;;
26269;SDS011;15937;50.612;6.656;2023-12-20T18:54:28;9.73;;;2.38;;
26269;SDS011;15937;50.612;6.656;2023-12-20T18:58:29;13.63;;;2.47;;
26269;SDS011;15937;50.612;6.656;2023-12-20T19:02:32;7.07;;;2.40;;
26269;SDS011;15937;50.612;6.656;2023-12-20T19:06:36;12.27;;;1.88;;
26269;SDS011;15937;50.612;6.656;2023-12-20T19:10:38;8.23;;;2.05;;
26269;SDS011;15937;50.612;6.656;2023-12-20T19:14:39;13.07;;;4.05;;
26269;SDS011;15937;50.612;6.656;2023-12-20T19:18:42;10.35;;;2.97;;
26269;SDS011;15937;50.612;6.656;2023-12-20T19:22:44;9.95;;;3.67;;
26269;SDS011;15937;50.612;6.656;2023-12-20T19:26:52;14.68;;;5.82;;
26269;SDS011;15937;50.612;6.656;2023-12-20T19:31:13;21.48;;;5.82;;
26269;SDS011;15937;50.612;6.656;2023-12-20T19:35:16;32.50;;;9.43;;
26269;SDS011;15937;50.612;6.656;2023-12-20T19:39:18;12.40;;;3.80;;
26269;SDS011;15937;50.612;6.656;2023-12-20T19:43:21;39.25;;;11.30;;
26269;SDS011;15937;50.612;6.656;2023-12-20T19:47:23;26.23;;;4.78;;
26269;SDS011;15937;50.612;6.656;2023-12-20T19:51:25;24.08;;;6.47;;
26269;SDS011;15937;50.612;6.656;2023-12-20T19:55:29;25.20;;;7.07;;
26269;SDS011;15937;50.612;6.656;2023-12-20T20:03:42;50.00;;;10.82;;
26269;SDS011;15937;50.612;6.656;2023-12-20T20:07:44;43.28;;;16.15;;
26269;SDS011;15937;50.612;6.656;2023-12-20T20:11:46;32.17;;;10.85;;
26269;SDS011;15937;50.612;6.656;2023-12-20T20:15:49;12.40;;;2.58;;
26269;SDS011;15937;50.612;6.656;2023-12-20T20:19:51;9.85;;;2.00;;
26269;SDS011;15937;50.612;6.656;2023-12-20T20:23:54;15.23;;;2.43;;
26269;SDS011;15937;50.612;6.656;2023-12-20T20:27:59;7.28;;;2.15;;
26269;SDS011;15937;50.612;6.656;2023-12-20T20:32:06;7.60;;;1.30;;
26269;SDS011;15937;50.612;6.656;2023-12-20T20:36:08;6.78;;;1.40;;
26269;SDS011;15937;50.612;6.656;2023-12-20T20:40:11;5.35;;;1.77;;
26269;SDS011;15937;50.612;6.656;2023-12-20T20:44:15;8.10;;;2.03;;
26269;SDS011;15937;50.612;6.656;2023-12-20T20:48:17;7.97;;;1.80;;
26269;SDS011;15937;50.612;6.656;2023-12-20T20:52:30;4.35;;;1.30;;
26269;SDS011;15937;50.612;6.656;2023-12-20T20:56:32;3.80;;;1.80;;
26269;SDS011;15937;50.612;6.656;2023-12-20T21:00:35;5.07;;;1.70;;
26269;SDS011;15937;50.612;6.656;2023-12-20T21:08:40;3.63;;;1.23;;
26269;SDS011;15937;50.612;6.656;2023-12-20T21:12:42;14.32;;;2.50;;
26269;SDS011;15937;50.612;6.656;2023-12-20T21:16:44;6.75;;;3.08;;
26269;SDS011;15937;50.612;6.656;2023-12-20T21:20:46;1.27;;;0.90;;
26269;SDS011;15937;50.612;6.656;2023-12-20T21:24:49;1.42;;;1.30;;
26269;SDS011;15937;50.612;6.656;2023-12-20T21:28:51;2.22;;;1.50;;
26269;SDS011;15937;50.612;6.656;2023-12-20T21:32:54;37.57;;;15.00;;
26269;SDS011;15937;50.612;6.656;2023-12-20T21:45:30;4.63;;;2.28;;
26269;SDS011;15937;50.612;6.656;2023-12-20T21:49:32;5.83;;;1.73;;
26269;SDS011;15937;50.612;6.656;2023-12-20T21:53:34;2.10;;;1.10;;
26269;SDS011;15937;50.612;6.656;2023-12-20T21:57:36;5.80;;;1.20;;
26269;SDS011;15937;50.612;6.656;2023-12-20T22:01:40;5.18;;;1.58;;
26269;SDS011;15937;50.612;6.656;2023-12-20T22:05:44;3.38;;;1.63;;
26269;SDS011;15937;50.612;6.656;2023-12-20T22:09:46;5.25;;;1.70;;
26269;SDS011;15937;50.612;6.656;2023-12-20T22:13:48;1.33;;;1.17;;
26269;SDS011;15937;50.612;6.656;2023-12-20T22:17:50;0.70;;;0.70;;
26269;SDS011;15937;50.612;6.656;2023-12-20T22:21:52;2.35;;;1.00;;
26269;SDS011;15937;50.612;6.656;2023-12-20T22:25:54;1.00;;;0.90;;
26269;SDS011;15937;50.612;6.656;2023-12-20T22:29:56;3.17;;;0.80;;
26269;SDS011;15937;50.612;6.656;2023-12-20T22:33:58;2.77;;;0.97;;
26269;SDS011;15937;50.612;6.656;2023-12-20T22:38:01;2.60;;;1.05;;
26269;SDS011;15937;50.612;6.656;2023-12-20T22:42:02;1.85;;;0.70;;
26269;SDS011;15937;50.612;6.656;2023-12-20T22:46:04;0.80;;;0.80;;
26269;SDS011;15937;50.612;6.656;2023-12-20T22:50:07;0.75;;;0.70;;
26269;SDS011;15937;50.612;6.656;2023-12-20T22:54:10;0.80;;;0.70;;
26269;SDS011;15937;50.612;6.656;2023-12-20T22:58:11;1.20;;;1.05;;
26269;SDS011;15937;50.612;6.656;2023-12-20T23:06:53;1.98;;;0.60;;
26269;SDS011;15937;50.612;6.656;2023-12-20T23:10:55;1.75;;;0.50;;
26269;SDS011;15937;50.612;6.656;2023-12-20T23:14:57;0.77;;;0.77;;
26269;SDS011;15937;50.612;6.656;2023-12-20T23:18:59;0.63;;;0.63;;
26269;SDS011;15937;50.612;6.656;2023-12-20T23:23:01;1.17;;;0.60;;
26269;SDS011;15937;50.612;6.656;2023-12-20T23:27:03;1.27;;;0.70;;
26269;SDS011;15937;50.612;6.656;2023-12-20T23:31:05;0.60;;;0.60;;
26269;SDS011;15937;50.612;6.656;2023-12-20T23:35:08;0.60;;;0.60;;
26269;SDS011;15937;50.612;6.656;2023-12-20T23:39:16;0.50;;;0.50;;
26269;SDS011;15937;50.612;6.656;2023-12-20T23:43:18;0.60;;;0.60;;
26269;SDS011;15937;50.612;6.656;2023-12-20T23:47:20;0.80;;;0.68;;
26269;SDS011;15937;50.612;6.656;2023-12-20T23:51:22;0.77;;;0.70;;
26269;SDS011;15937;50.612;6.656;2023-12-20T23:55:24;0.70;;;0.70;;
26269;SDS011;15937;50.612;6.656;2023-12-20T23:59:26;0.50;;;0.50;;
